createdAt,value
2024-03-14T00:03:50.054Z,100320.38
2024-03-14T00:09:11.974Z,100333.69
2024-03-14T00:14:33.103Z,100346.72
2024-03-14T00:19:54.234Z,100332.59
2024-03-14T00:25:16.079Z,100336.72
2024-03-14T00:30:39.301Z,100325.56
2024-03-14T00:36:03.175Z,100335.63
2024-03-14T00:41:26.015Z,100323.09
2024-03-14T00:46:51.325Z,100336.41
2024-03-14T00:52:12.645Z,100268.78
2024-03-14T00:57:34.222Z,100300.22
2024-03-14T01:02:55.415Z,100274.72
2024-03-14T01:08:17.901Z,100316.50
2024-03-14T01:13:38.627Z,100299.34
2024-03-14T01:18:59.815Z,100292.03
2024-03-14T01:24:21.077Z,100293.66
2024-03-14T01:29:42.157Z,100299.44
2024-03-14T01:35:06.738Z,100301.63
2024-03-14T01:40:27.518Z,100298.38
2024-03-14T01:45:48.539Z,100270.94
2024-03-14T01:51:09.670Z,100255.44
2024-03-14T01:56:31.672Z,100282.56
2024-03-14T02:01:52.561Z,100295.03
2024-03-14T02:07:15.030Z,100297.28
2024-03-14T02:12:36.111Z,100255.72
2024-03-14T02:17:58.139Z,100241.84
2024-03-14T02:23:19.884Z,100274.94
2024-03-14T02:28:40.909Z,100288.81
2024-03-14T02:34:02.806Z,100270.00
2024-03-14T02:39:25.438Z,100267.75
2024-03-14T02:44:49.281Z,100250.13
2024-03-14T02:50:10.281Z,100288.13
2024-03-14T02:55:31.824Z,100251.22
2024-03-14T03:00:54.706Z,100284.84
2024-03-14T03:06:16.718Z,100289.72
2024-03-14T03:11:38.640Z,100257.41
2024-03-14T03:16:59.920Z,100281.84
2024-03-14T03:22:23.521Z,100276.47
2024-03-14T03:27:44.338Z,100263.41
2024-03-14T03:33:06.894Z,100246.34
2024-03-14T03:38:28.259Z,100273.75
2024-03-14T03:43:51.229Z,100244.72
2024-03-14T03:49:12.152Z,100234.91
2024-03-14T03:54:32.878Z,100260.16
2024-03-14T03:59:57.035Z,100245.81
2024-03-14T04:05:19.107Z,100232.56
2024-03-14T04:10:40.221Z,100280.06
2024-03-14T04:16:07.154Z,100282.28
2024-03-14T04:21:28.571Z,100278.00
2024-03-14T04:26:49.718Z,100281.28
2024-03-14T04:32:14.291Z,100219.63
2024-03-14T04:37:37.672Z,100262.28
2024-03-14T04:43:01.107Z,100267.44
2024-03-14T04:48:22.922Z,100253.38
2024-03-14T04:53:44.785Z,100269.59
2024-03-14T04:59:09.565Z,100258.19
2024-03-14T05:04:30.948Z,100258.16
2024-03-14T05:09:52.853Z,100261.72
2024-03-14T05:15:15.645Z,100282.88
2024-03-14T05:20:36.884Z,100243.19
2024-03-14T05:25:58.847Z,100268.75
2024-03-14T05:31:20.549Z,100261.63
2024-03-14T05:36:41.928Z,100287.22
2024-03-14T05:42:03.754Z,100258.72
2024-03-14T05:47:28.310Z,100292.19
2024-03-14T05:52:50.353Z,100264.47
2024-03-14T05:58:11.279Z,100232.47
2024-03-14T06:03:32.170Z,100297.88
2024-03-14T06:08:57.415Z,100294.63
2024-03-14T06:14:21.816Z,100255.69
2024-03-14T06:19:43.216Z,100242.09
2024-03-14T06:25:08.572Z,100260.78
2024-03-14T06:30:30.996Z,100265.09
2024-03-14T06:35:51.898Z,100283.19
2024-03-14T06:41:14.796Z,100300.34
2024-03-14T06:46:37.352Z,100280.03
2024-03-14T06:52:01.998Z,100249.84
2024-03-14T06:57:23.064Z,100283.59
2024-03-14T07:02:45.481Z,100283.16
2024-03-14T07:08:06.974Z,100285.41
2024-03-14T07:13:28.692Z,100306.69
2024-03-14T07:18:56.429Z,100305.91
2024-03-14T07:24:18.929Z,100300.56
2024-03-14T07:29:40.406Z,100311.69
2024-03-14T07:35:03.204Z,100322.00
2024-03-14T07:40:34.875Z,100314.63
2024-03-14T07:45:56.254Z,100308.22
2024-03-14T07:51:18.051Z,100310.38
2024-03-14T07:56:39.591Z,100293.63
2024-03-14T08:02:05.127Z,100310.94
2024-03-14T08:07:27.333Z,100308.59
2024-03-14T08:12:48.356Z,100302.06
2024-03-14T08:18:12.581Z,100283.41
2024-03-14T08:23:35.226Z,100283.84
2024-03-14T08:28:57.620Z,100304.47
2024-03-14T08:34:18.626Z,100304.69
2024-03-14T08:39:39.883Z,100328.56
2024-03-14T08:45:06.323Z,100337.00
2024-03-14T08:50:28.744Z,100315.81
2024-03-14T08:55:57.081Z,100309.28
2024-03-14T09:01:20.368Z,100339.41
2024-03-14T09:06:43.804Z,100295.75
2024-03-14T09:12:26.192Z,100326.69
2024-03-14T09:17:48.242Z,100333.66
2024-03-14T09:23:17.471Z,100322.81
2024-03-14T09:28:40.064Z,100316.19
2024-03-14T09:34:01.526Z,100319.28
2024-03-14T09:39:23.305Z,100322.50
2024-03-14T09:44:45.002Z,100308.41
2024-03-14T09:50:12.858Z,100326.53
2024-03-14T09:55:36.101Z,100303.41
2024-03-14T10:00:57.640Z,100310.69
2024-03-14T10:06:22.608Z,100305.31
2024-03-14T10:11:45.509Z,100317.13
2024-03-14T10:17:10.417Z,100295.25
2024-03-14T10:22:33.437Z,100318.56
2024-03-14T10:28:05.755Z,100293.31
2024-03-14T10:33:31.847Z,100296.69
2024-03-14T10:38:55.827Z,100303.34
2024-03-14T10:44:19.975Z,100307.09
2024-03-14T10:49:46.617Z,100302.41
2024-03-14T10:55:14.224Z,100286.53
2024-03-14T11:00:36.331Z,100291.69
2024-03-14T11:05:57.940Z,100272.09
2024-03-14T11:11:20.428Z,100290.22
2024-03-14T11:16:45.772Z,100285.06
2024-03-14T11:22:07.566Z,100271.97
2024-03-14T11:27:30.361Z,100260.97
2024-03-14T11:32:58.706Z,100261.91
2024-03-14T11:38:22.279Z,100277.75
2024-03-14T11:43:43.168Z,100257.84
2024-03-14T11:49:15.612Z,100247.00
2024-03-14T11:54:37.236Z,100250.44
2024-03-14T12:00:09.464Z,100254.97
2024-03-14T12:05:30.335Z,100259.47
2024-03-14T12:10:57.007Z,100242.66
2024-03-14T12:16:19.783Z,100226.00
2024-03-14T12:21:42.091Z,100234.22
2024-03-14T12:27:04.507Z,100187.03
2024-03-14T12:32:25.844Z,100193.03
2024-03-14T12:37:49.830Z,100213.25
2024-03-14T12:43:11.180Z,100196.75
2024-03-14T12:48:32.247Z,100198.38
2024-03-14T12:54:02.018Z,100195.47
2024-03-14T12:59:30.855Z,100201.59
2024-03-14T13:04:55.208Z,100222.47
2024-03-14T13:10:20.528Z,100173.47
2024-03-14T13:15:42.690Z,100180.25
2024-03-14T13:21:04.669Z,100199.66
2024-03-14T13:26:27.975Z,100164.09
2024-03-14T13:31:48.905Z,100154.09
2024-03-14T13:37:11.032Z,100193.84
2024-03-14T13:42:32.258Z,100151.03
2024-03-14T13:47:56.469Z,100184.63
2024-03-14T13:58:47.841Z,100174.25
2024-03-14T14:04:09.412Z,100163.44
2024-03-14T14:09:33.748Z,100168.47
2024-03-14T14:15:02.992Z,100172.34
2024-03-14T14:20:33.010Z,100170.28
2024-03-14T14:26:00.279Z,100161.06
2024-03-14T14:31:28.786Z,100154.59
2024-03-14T14:36:49.997Z,100120.16
2024-03-14T14:42:17.743Z,100139.88
2024-03-14T14:47:43.957Z,100130.34
2024-03-14T14:53:08.047Z,100157.03
2024-03-14T14:58:30.360Z,100146.19
2024-03-14T15:03:55.554Z,100130.34
2024-03-14T15:09:17.987Z,100146.66
2024-03-14T15:14:43.059Z,100130.28
2024-03-14T15:20:06.627Z,100137.41
2024-03-14T15:25:28.061Z,100139.50
2024-03-14T15:30:49.903Z,100111.38
2024-03-14T15:36:18.772Z,100119.75
2024-03-14T15:41:42.177Z,100127.72
2024-03-14T15:47:03.356Z,100116.06
2024-03-14T15:52:26.151Z,100142.91
2024-03-14T15:57:48.089Z,100139.66
2024-03-14T16:03:09.779Z,100147.13
2024-03-14T16:08:45.156Z,100134.00
2024-03-14T16:14:09.926Z,100128.00
2024-03-14T16:19:32.963Z,100138.03
2024-03-14T16:24:55.708Z,100129.56
2024-03-14T16:30:19.558Z,100135.41
2024-03-14T16:35:42.378Z,100125.16
2024-03-14T16:41:08.143Z,100148.72
2024-03-14T16:46:31.259Z,100152.06
2024-03-14T16:51:52.478Z,100144.25
2024-03-14T16:57:14.492Z,100136.75
2024-03-14T17:02:38.791Z,100161.28
2024-03-14T17:08:00.179Z,100158.50
2024-03-14T17:13:21.891Z,100123.22
2024-03-14T17:18:43.566Z,100161.53
2024-03-14T17:24:06.068Z,100164.56
2024-03-14T17:29:30.781Z,100168.44
2024-03-14T17:34:53.340Z,100149.13
2024-03-14T17:40:20.689Z,100124.72
2024-03-14T17:46:08.309Z,100169.09
2024-03-14T17:51:31.048Z,100162.63
2024-03-14T17:57:01.321Z,100170.22
2024-03-14T18:02:25.890Z,100152.91
2024-03-14T18:07:48.081Z,100147.34
2024-03-14T18:18:37.591Z,100162.25
2024-03-14T18:24:04.734Z,100165.31
2024-03-14T18:29:32.268Z,100173.53
2024-03-14T18:34:56.173Z,100169.06
2024-03-14T18:40:26.127Z,100154.38
2024-03-14T18:45:48.263Z,100139.59
2024-03-14T18:51:11.954Z,100166.94
2024-03-14T18:56:36.807Z,100145.91
2024-03-14T19:01:58.284Z,100164.34
2024-03-14T19:07:19.649Z,100145.03
2024-03-14T19:12:42.408Z,100132.25
2024-03-14T19:18:05.282Z,100150.56
2024-03-14T19:23:30.565Z,100147.31
2024-03-14T19:28:53.009Z,100152.63
2024-03-14T19:34:14.304Z,100152.13
2024-03-14T19:39:35.634Z,100140.66
2024-03-14T19:45:08.981Z,100153.91
2024-03-14T19:50:31.648Z,100151.00
2024-03-14T19:55:54.082Z,100135.28
2024-03-14T20:01:15.642Z,100150.66
2024-03-14T20:06:37.452Z,100148.88
2024-03-14T20:11:59.243Z,100135.09
2024-03-14T20:17:20.324Z,100156.25
2024-03-14T20:22:42.284Z,100143.63
2024-03-14T20:28:06.010Z,100143.31
2024-03-14T20:33:30.297Z,100148.66
2024-03-14T20:44:19.778Z,100119.50
2024-03-14T20:49:43.569Z,100107.84
2024-03-14T21:00:41.519Z,100121.34
2024-03-14T21:06:04.086Z,100137.03
2024-03-14T21:11:25.180Z,100126.72
2024-03-14T21:16:46.852Z,100104.22
2024-03-14T21:22:12.517Z,100116.69
2024-03-14T21:27:33.784Z,100122.97
2024-03-14T21:32:54.821Z,100114.88
2024-03-14T21:38:15.883Z,100128.00
2024-03-14T21:43:37.015Z,100128.63
2024-03-14T21:48:58.471Z,100117.63
2024-03-14T21:54:23.981Z,100129.88
2024-03-14T21:59:45.466Z,100127.94
2024-03-14T22:05:06.515Z,100102.22
2024-03-14T22:10:27.864Z,100122.38
2024-03-14T22:15:49.515Z,100090.69
2024-03-14T22:21:10.954Z,100120.47
2024-03-14T22:26:32.438Z,100090.69
2024-03-14T22:31:54.830Z,100100.41
2024-03-14T22:37:16.873Z,100094.44
2024-03-14T22:42:41.086Z,100108.31
2024-03-14T22:48:02.285Z,100054.41
2024-03-14T22:53:23.812Z,100087.47
2024-03-14T22:58:45.865Z,100086.00
2024-03-14T23:04:10.342Z,100098.97
2024-03-14T23:09:31.763Z,100085.00
2024-03-14T23:14:52.664Z,100104.34
2024-03-14T23:20:14.037Z,100055.63
2024-03-14T23:25:36.042Z,100078.31
2024-03-14T23:30:57.589Z,100062.00
2024-03-14T23:36:18.579Z,100092.28
2024-03-14T23:41:40.004Z,100093.38
2024-03-14T23:47:00.964Z,100069.31
2024-03-14T23:52:21.998Z,100099.06
2024-03-14T23:57:46.188Z,100068.31
